createdAt,value
2019-02-26T00:00:58.688Z,20.97
2019-02-26T00:03:38.778Z,17.30
2019-02-26T00:06:20.562Z,21.57
2019-02-26T00:09:03.196Z,16.57
2019-02-26T00:11:43.413Z,22.37
2019-02-26T00:14:24.766Z,21.62
2019-02-26T00:17:08.663Z,17.85
2019-02-26T00:19:47.259Z,21.10
2019-02-26T00:22:26.510Z,20.25
2019-02-26T00:25:10.449Z,18.57
2019-02-26T00:27:52.432Z,17.67
2019-02-26T00:30:35.702Z,18.30
2019-02-26T00:33:16.808Z,17.37
2019-02-26T00:35:56.048Z,20.75
2019-02-26T00:38:37.551Z,22.10
2019-02-26T00:41:20.302Z,22.40
2019-02-26T00:43:59.855Z,20.55
2019-02-26T00:46:39.885Z,19.57
2019-02-26T00:49:21.461Z,22.40
2019-02-26T00:52:00.458Z,16.82
2019-02-26T00:54:41.015Z,21.97
2019-02-26T00:57:20.345Z,18.45
2019-02-26T01:00:00.745Z,20.75
2019-02-26T01:02:40.378Z,17.73
2019-02-26T01:05:19.843Z,21.25
2019-02-26T01:07:59.124Z,18.62
2019-02-26T01:10:39.853Z,20.57
2019-02-26T01:13:20.654Z,20.57
2019-02-26T01:16:00.816Z,18.70
2019-02-26T01:18:42.251Z,17.05
2019-02-26T01:21:26.228Z,20.25
2019-02-26T01:24:04.726Z,17.80
2019-02-26T01:26:45.088Z,19.27
2019-02-26T01:29:27.635Z,19.80
2019-02-26T01:32:10.981Z,18.55
2019-02-26T01:34:49.540Z,19.60
2019-02-26T01:37:30.023Z,18.48
2019-02-26T01:40:13.742Z,17.37
2019-02-26T01:42:55.617Z,18.70
2019-02-26T01:45:34.851Z,18.32
2019-02-26T01:48:16.672Z,18.35
2019-02-26T01:50:57.440Z,17.52
2019-02-26T01:53:37.556Z,19.23
2019-02-26T01:56:17.729Z,21.65
2019-02-26T01:59:02.101Z,19.05
2019-02-26T02:01:42.066Z,19.07
2019-02-26T02:04:20.793Z,18.65
2019-02-26T02:07:01.403Z,18.52
2019-02-26T02:09:46.563Z,20.80
2019-02-26T03:55:06.786Z,16.70
2019-02-26T03:57:47.615Z,17.57
2019-02-26T04:00:28.363Z,18.02
2019-02-26T04:03:09.232Z,20.57
2019-02-26T04:06:02.918Z,17.25
2019-02-26T04:08:51.080Z,18.87
2019-02-26T04:11:31.089Z,18.55
2019-02-26T04:14:12.642Z,20.50
2019-02-26T04:16:55.228Z,18.37
2019-02-26T04:19:34.870Z,21.30
2019-02-26T04:22:28.128Z,19.00
2019-02-26T04:25:57.631Z,15.85
2019-02-26T04:28:57.157Z,20.52
2019-02-26T04:32:23.254Z,16.05
2019-02-26T04:35:36.973Z,17.60
2019-02-26T04:39:02.274Z,19.37
2019-02-26T04:42:19.860Z,16.32
2019-02-26T04:45:49.096Z,21.30
2019-02-26T04:48:34.371Z,16.85
2019-02-26T04:51:14.077Z,19.73
2019-02-26T04:53:56.139Z,23.77
2019-02-26T04:56:40.116Z,23.67
2019-02-26T04:59:19.111Z,22.15
2019-02-26T05:02:01.663Z,22.55
2019-02-26T05:04:42.102Z,21.62
2019-02-26T05:07:21.694Z,25.80
2019-02-26T05:10:02.670Z,15.98
2019-02-26T05:12:42.528Z,20.62
2019-02-26T05:15:26.519Z,19.92
2019-02-26T05:18:05.198Z,18.62
2019-02-26T05:20:48.445Z,20.72
2019-02-26T05:23:31.101Z,21.05
2019-02-26T05:26:11.555Z,21.55
2019-02-26T05:28:51.675Z,18.70
2019-02-26T05:31:33.159Z,19.23
2019-02-26T05:34:14.755Z,20.65
2019-02-26T05:36:53.654Z,18.15
2019-02-26T05:39:33.450Z,18.85
2019-02-26T05:42:12.992Z,18.62
2019-02-26T05:44:54.625Z,20.57
2019-02-26T05:47:33.337Z,16.32
2019-02-26T05:50:16.311Z,17.65
2019-02-26T05:52:57.992Z,17.82
2019-02-26T05:55:36.648Z,16.75
2019-02-26T05:58:19.349Z,17.15
2019-02-26T06:00:58.369Z,17.15
2019-02-26T06:03:39.063Z,19.07
2019-02-26T06:06:19.794Z,16.42
2019-02-26T06:09:02.281Z,22.60
2019-02-26T06:11:49.355Z,17.50
2019-02-26T06:14:27.659Z,17.95
2019-02-26T06:17:09.706Z,18.23
2019-02-26T06:19:50.574Z,20.57
2019-02-26T06:22:31.809Z,17.50
2019-02-26T06:25:18.355Z,19.45
2019-02-26T06:27:54.962Z,25.48
2019-02-26T06:30:35.115Z,22.52
2019-02-26T06:33:16.377Z,20.95
2019-02-26T06:35:59.878Z,21.42
2019-02-26T06:38:39.456Z,20.25
2019-02-26T06:41:19.749Z,18.62
2019-02-26T06:43:59.562Z,25.35
2019-02-26T06:46:39.901Z,21.20
2019-02-26T06:49:21.971Z,23.45
2019-02-26T06:52:01.399Z,20.80
2019-02-26T06:54:41.239Z,18.87
2019-02-26T06:57:21.172Z,20.95
2019-02-26T07:00:02.269Z,20.55
2019-02-26T07:02:46.169Z,27.37
2019-02-26T07:05:25.167Z,20.30
2019-02-26T07:08:06.671Z,19.62
2019-02-26T07:10:46.591Z,20.23
2019-02-26T07:13:26.596Z,19.80
2019-02-26T07:16:06.434Z,19.10
2019-02-26T07:18:46.273Z,19.15
2019-02-26T07:21:26.339Z,19.62
2019-02-26T07:24:07.701Z,20.95
2019-02-26T07:26:49.184Z,18.37
2019-02-26T07:29:32.864Z,18.70
2019-02-26T07:32:12.331Z,17.82
2019-02-26T07:34:53.361Z,17.98
2019-02-26T07:37:36.311Z,18.35
2019-02-26T07:40:18.537Z,18.85
2019-02-26T07:42:59.859Z,19.82
2019-02-26T07:45:39.994Z,18.77
2019-02-26T07:48:23.852Z,19.90
2019-02-26T07:51:06.887Z,16.37
2019-02-26T07:53:51.667Z,20.82
2019-02-26T07:56:32.746Z,17.23
2019-02-26T07:59:13.093Z,17.63
2019-02-26T08:01:53.538Z,20.07
2019-02-26T08:04:36.343Z,17.80
2019-02-26T08:07:16.597Z,22.27
2019-02-26T08:09:56.414Z,22.17
2019-02-26T08:12:38.080Z,16.20
2019-02-26T08:15:17.797Z,19.10
2019-02-26T08:18:00.582Z,17.20
2019-02-26T08:20:40.230Z,19.10
2019-02-26T08:23:21.657Z,20.33
2019-02-26T08:26:18.085Z,18.20
2019-02-26T08:28:57.454Z,18.97
2019-02-26T08:31:36.947Z,19.43
2019-02-26T08:34:16.661Z,20.43
2019-02-26T08:36:57.237Z,18.97
2019-02-26T08:39:38.015Z,20.90
2019-02-26T08:42:21.321Z,22.90
2019-02-26T08:45:00.778Z,20.77
2019-02-26T08:47:42.171Z,25.50
2019-02-26T08:50:21.994Z,22.27
2019-02-26T08:53:01.599Z,20.90
2019-02-26T08:55:41.633Z,22.23
2019-02-26T08:58:21.074Z,18.27
2019-02-26T09:01:00.558Z,22.10
2019-02-26T09:03:41.025Z,21.13
2019-02-26T09:06:20.680Z,22.67
2019-02-26T09:09:02.689Z,27.07
2019-02-26T09:11:44.167Z,22.60
2019-02-26T09:14:25.202Z,22.37
2019-02-26T09:17:05.180Z,21.13
2019-02-26T09:19:44.815Z,20.90
2019-02-26T09:22:26.665Z,25.77
2019-02-26T09:25:07.317Z,23.43
2019-02-26T09:27:47.058Z,24.73
2019-02-26T09:30:28.193Z,25.13
2019-02-26T09:33:09.061Z,27.63
2019-02-26T09:35:50.298Z,28.63
2019-02-26T09:38:31.323Z,29.77
2019-02-26T09:41:11.857Z,28.53
2019-02-26T09:43:52.493Z,27.97
2019-02-26T09:46:35.811Z,27.70
2019-02-26T09:49:13.272Z,27.60
2019-02-26T09:51:54.493Z,24.03
2019-02-26T09:54:37.749Z,25.30
2019-02-26T09:57:17.581Z,24.70
2019-02-26T10:00:00.050Z,27.27
2019-02-26T10:02:40.131Z,24.37
2019-02-26T10:05:20.689Z,24.30
2019-02-26T10:08:03.480Z,24.00
2019-02-26T10:10:41.985Z,26.43
2019-02-26T10:13:23.269Z,25.07
2019-02-26T10:16:04.470Z,22.93
2019-02-26T10:18:45.012Z,25.07
2019-02-26T10:21:25.637Z,22.87
2019-02-26T10:24:05.170Z,21.90
2019-02-26T10:26:44.987Z,23.57
2019-02-26T10:29:24.498Z,25.97
2019-02-26T10:32:04.214Z,24.40
2019-02-26T10:34:43.958Z,24.00
2019-02-26T10:37:23.766Z,23.43
2019-02-26T10:40:03.606Z,21.00
2019-02-26T10:42:46.106Z,23.47
2019-02-26T10:45:26.835Z,20.67
2019-02-26T10:48:08.832Z,21.93
2019-02-26T10:50:51.763Z,20.33
2019-02-26T10:53:30.382Z,20.77
2019-02-26T10:56:10.055Z,19.13
2019-02-26T10:58:49.587Z,21.17
2019-02-26T11:01:31.036Z,19.03
2019-02-26T11:04:10.619Z,21.23
2019-02-26T11:06:50.132Z,21.87
2019-02-26T11:09:31.917Z,19.30
2019-02-26T11:12:11.315Z,18.47
2019-02-26T11:14:51.452Z,19.97
2019-02-26T11:17:39.507Z,24.30
2019-02-26T11:20:22.338Z,20.63
2019-02-26T11:23:04.146Z,19.73
2019-02-26T11:25:45.037Z,19.57
2019-02-26T11:28:29.735Z,21.50
2019-02-26T11:31:09.458Z,20.03
2019-02-26T11:33:56.389Z,18.73
2019-02-26T11:36:36.543Z,23.43
2019-02-26T11:39:16.528Z,20.27
2019-02-26T11:41:58.653Z,20.23
2019-02-26T11:44:37.827Z,20.13
2019-02-26T11:47:18.414Z,17.50
2019-02-26T11:49:59.694Z,16.47
2019-02-26T11:52:40.141Z,18.10
2019-02-26T11:55:21.094Z,16.27
2019-02-26T11:58:05.613Z,15.17
2019-02-26T12:00:50.622Z,16.93
2019-02-26T12:03:34.149Z,16.83
2019-02-26T12:06:15.239Z,18.23
2019-02-26T12:08:54.947Z,18.30
2019-02-26T12:11:37.699Z,18.90
2019-02-26T12:14:19.482Z,17.57
2019-02-26T12:17:02.631Z,16.13
2019-02-26T12:19:42.239Z,17.27
2019-02-26T12:22:22.755Z,18.37
2019-02-26T12:25:05.747Z,16.17
2019-02-26T12:27:45.727Z,16.33
2019-02-26T12:30:26.469Z,24.83
2019-02-26T12:33:07.703Z,16.83
2019-02-26T12:35:47.368Z,21.07
2019-02-26T12:38:27.122Z,15.47
2019-02-26T12:41:11.584Z,15.77
2019-02-26T12:43:50.345Z,16.20
2019-02-26T12:46:31.086Z,16.07
2019-02-26T12:49:12.647Z,15.17
2019-02-26T12:51:53.945Z,17.83
2019-02-26T12:54:37.816Z,18.23
2019-02-26T12:57:19.093Z,16.37
2019-02-26T12:59:57.616Z,17.27
2019-02-26T13:02:40.007Z,14.98
2019-02-26T13:05:23.044Z,13.15
2019-02-26T13:08:03.288Z,14.13
2019-02-26T13:10:49.718Z,17.60
2019-02-26T13:13:32.265Z,14.80
2019-02-26T13:16:13.019Z,16.00
2019-02-26T13:18:58.605Z,17.85
2019-02-26T13:21:35.873Z,16.60
2019-02-26T13:24:17.911Z,16.63
2019-02-26T13:26:59.572Z,14.53
2019-02-26T13:29:47.582Z,16.83
2019-02-26T13:32:25.916Z,13.40
2019-02-26T13:35:07.390Z,17.12
2019-02-26T13:37:45.020Z,16.17
2019-02-26T13:40:24.936Z,14.97
2019-02-26T13:45:46.471Z,15.60
2019-02-26T13:48:26.360Z,14.05
2019-02-26T13:51:06.195Z,13.67
2019-02-26T13:53:49.466Z,15.28
2019-02-26T13:56:29.212Z,17.30
2019-02-26T13:59:10.520Z,18.40
2019-02-26T14:01:51.704Z,13.67
2019-02-26T14:04:31.609Z,14.65
2019-02-26T14:07:11.864Z,16.60
2019-02-26T14:09:53.023Z,12.10
2019-02-26T14:12:32.935Z,16.60
2019-02-26T14:15:17.415Z,14.17
2019-02-26T14:17:56.809Z,13.50
2019-02-26T14:20:36.831Z,18.30
2019-02-26T14:23:16.335Z,13.93
2019-02-26T14:25:57.323Z,15.68
2019-02-26T14:28:37.155Z,17.50
2019-02-26T14:31:16.713Z,12.93
2019-02-26T14:33:56.283Z,13.80
2019-02-26T14:36:38.113Z,16.50
2019-02-26T14:39:17.953Z,14.40
2019-02-26T14:42:00.624Z,15.07
2019-02-26T14:44:42.353Z,13.55
2019-02-26T14:47:22.300Z,15.10
2019-02-26T14:50:01.698Z,19.07
2019-02-26T14:52:41.754Z,20.27
2019-02-26T14:55:22.851Z,15.98
2019-02-26T14:58:05.841Z,15.08
2019-02-26T15:00:57.163Z,16.23
2019-02-26T15:03:29.008Z,14.65
2019-02-26T15:06:09.079Z,16.45
2019-02-26T15:08:48.907Z,14.75
2019-02-26T15:11:40.781Z,13.03
2019-02-26T15:14:21.516Z,19.07
2019-02-26T15:17:02.088Z,17.50
2019-02-26T15:19:49.587Z,19.20
2019-02-26T15:22:23.910Z,18.97
2019-02-26T15:25:04.391Z,16.85
2019-02-26T15:27:44.603Z,19.07
2019-02-26T15:30:24.940Z,17.40
2019-02-26T15:33:10.968Z,17.32
2019-02-26T15:35:46.956Z,17.95
2019-02-26T15:38:27.619Z,20.52
2019-02-26T15:41:08.251Z,15.70
2019-02-26T15:43:48.236Z,19.90
2019-02-26T15:46:28.642Z,15.63
2019-02-26T15:49:13.578Z,16.48
2019-02-26T15:51:53.968Z,18.25
2019-02-26T15:54:35.227Z,16.02
2019-02-26T15:57:16.228Z,21.95
2019-02-26T15:59:56.082Z,19.02
2019-02-26T16:02:36.877Z,17.82
2019-02-26T16:05:17.263Z,15.20
2019-02-26T16:07:56.976Z,17.67
2019-02-26T16:10:36.823Z,19.27
2019-02-26T16:13:16.657Z,29.42
2019-02-26T16:15:56.572Z,16.48
2019-02-26T16:18:36.292Z,19.37
2019-02-26T16:21:18.678Z,15.50
2019-02-26T16:23:58.036Z,18.12
2019-02-26T16:26:38.482Z,17.00
2019-02-26T16:29:20.089Z,16.90
2019-02-26T16:32:00.023Z,21.00
2019-02-26T16:34:39.768Z,18.55
2019-02-26T16:37:19.946Z,17.80
2019-02-26T16:39:59.618Z,18.45
2019-02-26T16:42:39.762Z,18.75
2019-02-26T16:45:21.455Z,19.75
2019-02-26T16:48:01.456Z,17.10
2019-02-26T16:50:41.171Z,23.52
2019-02-26T16:53:23.020Z,19.73
2019-02-26T16:56:02.920Z,18.77
2019-02-26T16:58:42.832Z,20.75
2019-02-26T17:01:22.740Z,18.60
2019-02-26T17:04:03.117Z,18.37
2019-02-26T17:06:43.134Z,19.50
2019-02-26T17:09:23.400Z,19.42
2019-02-26T17:12:03.400Z,18.35
2019-02-26T17:14:43.555Z,16.85
2019-02-26T17:17:23.268Z,18.60
2019-02-26T17:20:03.040Z,15.28
2019-02-26T17:22:45.013Z,21.23
2019-02-26T17:25:28.873Z,17.52
2019-02-26T17:28:09.464Z,18.00
2019-02-26T17:30:53.065Z,19.00
2019-02-26T17:33:33.009Z,19.23
2019-02-26T17:36:13.134Z,16.67
2019-02-26T17:38:53.059Z,17.55
2019-02-26T17:41:33.111Z,23.02
2019-02-26T17:44:12.915Z,22.42
2019-02-26T17:46:55.191Z,18.73
2019-02-26T17:49:36.279Z,23.00
2019-02-26T17:52:17.034Z,22.80
2019-02-26T17:54:56.875Z,23.05
2019-02-26T17:57:39.183Z,19.62
2019-02-26T18:00:21.594Z,18.60
2019-02-26T18:03:06.389Z,20.40
2019-02-26T18:05:51.285Z,19.25
2019-02-26T18:08:25.680Z,20.95
2019-02-26T18:11:05.611Z,20.25
2019-02-26T18:13:45.858Z,23.00
2019-02-26T18:16:25.891Z,20.05
2019-02-26T18:19:12.130Z,20.55
2019-02-26T18:21:51.741Z,23.15
2019-02-26T18:24:32.928Z,24.98
2019-02-26T18:27:12.856Z,24.50
2019-02-26T18:29:53.930Z,24.15
2019-02-26T18:32:33.802Z,25.23
2019-02-26T18:35:14.085Z,22.45
2019-02-26T18:37:55.508Z,23.67
2019-02-26T18:40:35.791Z,23.85
2019-02-26T18:43:15.760Z,23.52
2019-02-26T18:45:56.157Z,24.65
2019-02-26T18:48:36.290Z,22.40
2019-02-26T18:51:16.404Z,22.87
2019-02-26T18:53:56.250Z,26.68
2019-02-26T18:56:38.697Z,24.95
2019-02-26T18:59:21.244Z,26.07
2019-02-26T19:02:03.524Z,26.75
2019-02-26T19:04:43.609Z,27.55
2019-02-26T19:07:23.815Z,31.20
2019-02-26T19:10:03.841Z,34.08
2019-02-26T19:12:44.227Z,27.40
2019-02-26T19:15:25.191Z,26.45
2019-02-26T19:18:05.594Z,28.95
2019-02-26T19:20:48.848Z,24.10
2019-02-26T19:23:31.447Z,26.90
2019-02-26T19:26:13.515Z,27.62
2019-02-26T19:28:53.714Z,29.12
2019-02-26T19:31:33.842Z,29.63
2019-02-26T19:34:13.957Z,32.17
2019-02-26T19:36:53.731Z,32.05
2019-02-26T19:39:34.287Z,27.25
2019-02-26T19:42:17.374Z,31.77
2019-02-26T19:44:59.099Z,30.65
2019-02-26T19:47:39.028Z,30.00
2019-02-26T19:50:19.082Z,31.85
2019-02-26T19:53:02.271Z,28.27
2019-02-26T19:55:41.819Z,29.72
2019-02-26T19:58:21.690Z,24.40
2019-02-26T20:01:01.655Z,26.10
2019-02-26T20:03:42.765Z,29.92
2019-02-26T20:06:23.576Z,31.62
2019-02-26T20:09:06.527Z,34.53
2019-02-26T20:11:48.758Z,34.25
2019-02-26T20:14:28.974Z,32.25
2019-02-26T20:17:14.694Z,33.02
2019-02-26T20:19:52.766Z,29.80
2019-02-26T20:22:41.246Z,28.57
2019-02-26T20:25:21.220Z,28.62
2019-02-26T20:28:05.385Z,33.58
2019-02-26T20:30:42.922Z,31.80
2019-02-26T20:33:24.292Z,33.25
2019-02-26T20:36:04.053Z,29.52
2019-02-26T20:38:44.411Z,30.25
2019-02-26T20:41:24.276Z,31.75
2019-02-26T20:44:05.326Z,31.87
2019-02-26T20:46:45.534Z,31.93
2019-02-26T20:49:28.447Z,29.00
2019-02-26T20:52:12.451Z,31.65
2019-02-26T20:54:54.499Z,31.85
2019-02-26T20:57:37.727Z,32.63
2019-02-26T21:00:18.849Z,33.05
2019-02-26T21:02:58.849Z,28.10
2019-02-26T21:05:44.639Z,27.07
2019-02-26T21:08:24.851Z,27.37
2019-02-26T21:11:04.695Z,29.27
2019-02-26T21:13:47.093Z,34.47
2019-02-26T21:16:27.106Z,30.57
2019-02-26T21:19:06.983Z,28.47
2019-02-26T21:21:49.108Z,29.23
2019-02-26T21:24:31.935Z,33.42
2019-02-26T21:27:12.347Z,30.97
2019-02-26T21:29:52.537Z,29.63
2019-02-26T21:32:32.985Z,28.83
2019-02-26T21:35:13.139Z,29.70
2019-02-26T21:37:53.459Z,32.75
2019-02-26T21:40:33.279Z,31.33
2019-02-26T21:43:13.320Z,31.10
2019-02-26T21:45:53.232Z,28.15
2019-02-26T21:48:36.547Z,28.25
2019-02-26T21:51:14.545Z,33.33
2019-02-26T21:53:57.734Z,31.90
2019-02-26T21:56:37.804Z,27.07
2019-02-26T21:59:19.637Z,27.65
2019-02-26T22:02:03.794Z,28.05
2019-02-26T22:04:43.995Z,32.40
2019-02-26T22:07:24.018Z,28.92
2019-02-26T22:10:07.094Z,29.82
2019-02-26T22:12:46.101Z,31.33
2019-02-26T22:15:25.970Z,33.20
2019-02-26T22:18:05.913Z,29.48
2019-02-26T22:20:47.522Z,34.43
2019-02-26T22:23:29.298Z,32.28
2019-02-26T22:26:10.369Z,33.95
2019-02-26T22:28:53.395Z,28.02
2019-02-26T22:31:32.969Z,28.80
2019-02-26T22:34:12.956Z,29.60
2019-02-26T22:36:54.693Z,32.55
2019-02-26T22:39:35.441Z,30.00
2019-02-26T22:42:16.928Z,30.00
2019-02-26T22:44:56.810Z,29.70
2019-02-26T22:47:40.225Z,29.07
2019-02-26T22:50:18.327Z,30.20
2019-02-26T22:52:58.408Z,33.38
2019-02-26T22:55:38.287Z,31.17
2019-02-26T22:58:18.057Z,34.50
2019-02-26T23:01:30.459Z,30.30
2019-02-26T23:04:11.131Z,30.48
2019-02-26T23:06:51.058Z,34.13
2019-02-26T23:09:33.673Z,31.93
2019-02-26T23:12:13.315Z,35.33
2019-02-26T23:14:53.647Z,31.62
2019-02-26T23:17:33.522Z,34.33
2019-02-26T23:20:13.240Z,33.95
2019-02-26T23:22:55.594Z,29.00
2019-02-26T23:25:36.067Z,33.95
2019-02-26T23:28:21.994Z,32.15
2019-02-26T23:31:01.473Z,31.20
2019-02-26T23:33:41.816Z,35.73
2019-02-26T23:36:22.117Z,34.85
2019-02-26T23:39:01.429Z,33.30
2019-02-26T23:41:42.449Z,34.98
2019-02-26T23:44:21.888Z,33.70
2019-02-26T23:47:02.054Z,29.37
2019-02-26T23:49:42.148Z,31.68
2019-02-26T23:52:22.019Z,30.17
2019-02-26T23:55:01.251Z,36.20
2019-02-26T23:57:41.588Z,33.45
